createdAt,value
2022-12-29T00:00:31.545Z,83.57
2022-12-29T00:02:59.957Z,84.70
2022-12-29T00:05:29.744Z,84.14
2022-12-29T00:07:58.065Z,82.36
2022-12-29T00:10:26.480Z,83.13
2022-12-29T00:13:12.243Z,82.97
2022-12-29T00:15:41.080Z,84.52
2022-12-29T00:18:10.451Z,85.74
2022-12-29T00:20:57.713Z,87.26
2022-12-29T00:23:43.478Z,89.72
2022-12-29T00:26:33.930Z,92.32
2022-12-29T00:29:19.873Z,94.04
2022-12-29T00:32:08.211Z,94.80
2022-12-29T00:34:55.411Z,95.06
2022-12-29T00:37:45.305Z,94.64
2022-12-29T00:40:32.965Z,94.94
2022-12-29T00:43:19.573Z,94.99
2022-12-29T00:45:48.206Z,94.23
2022-12-29T00:48:36.963Z,93.56
2022-12-29T00:51:04.790Z,93.35
2022-12-29T00:53:34.919Z,93.55
2022-12-29T00:56:03.434Z,94.50
2022-12-29T00:58:33.049Z,95.56
2022-12-29T01:01:06.179Z,96.39
2022-12-29T01:03:36.912Z,97.27
2022-12-29T01:06:06.904Z,97.67
2022-12-29T01:08:37.411Z,99.18
2022-12-29T01:11:07.265Z,99.49
2022-12-29T01:13:37.043Z,99.94
2022-12-29T01:16:07.819Z,100.00
2022-12-29T01:18:37.015Z,100.00
2022-12-29T01:21:08.228Z,100.00
2022-12-29T01:23:37.938Z,100.00
2022-12-29T01:26:12.157Z,100.00
2022-12-29T01:28:42.519Z,100.00
2022-12-29T01:31:12.270Z,100.00
2022-12-29T01:33:40.794Z,100.00
2022-12-29T01:36:12.084Z,100.00
2022-12-29T01:38:43.244Z,100.00
2022-12-29T01:41:14.639Z,100.00
2022-12-29T01:43:46.288Z,100.00
2022-12-29T01:46:25.449Z,100.00
2022-12-29T01:49:02.160Z,100.00
2022-12-29T01:51:34.048Z,100.00
2022-12-29T01:54:11.989Z,100.00
2022-12-29T01:56:40.708Z,100.00
2022-12-29T01:59:16.721Z,100.00
2022-12-29T02:01:47.310Z,100.00
2022-12-29T02:04:16.182Z,100.00
2022-12-29T02:06:53.537Z,100.00
2022-12-29T02:09:24.655Z,100.00
2022-12-29T02:11:54.112Z,100.00
2022-12-29T02:14:22.606Z,100.00
2022-12-29T02:17:09.156Z,100.00
2022-12-29T02:20:20.596Z,100.00
2022-12-29T02:23:06.517Z,100.00
2022-12-29T02:26:02.786Z,100.00
2022-12-29T02:29:21.455Z,100.00
2022-12-29T02:31:59.915Z,100.00
2022-12-29T02:34:42.791Z,100.00
2022-12-29T02:37:21.727Z,100.00
2022-12-29T02:39:58.676Z,100.00
2022-12-29T02:42:35.925Z,100.00
2022-12-29T02:45:10.240Z,100.00
2022-12-29T02:47:44.894Z,100.00
2022-12-29T02:50:19.932Z,100.00
2022-12-29T02:52:53.706Z,100.00
2022-12-29T02:55:21.279Z,100.00
2022-12-29T02:58:17.774Z,100.00
2022-12-29T03:01:03.772Z,100.00
2022-12-29T03:03:50.253Z,100.00
2022-12-29T03:06:37.939Z,100.00
2022-12-29T03:09:21.483Z,100.00
2022-12-29T03:12:09.790Z,100.00
2022-12-29T03:15:10.438Z,100.00
2022-12-29T03:17:50.947Z,100.00
2022-12-29T03:20:27.612Z,100.00
2022-12-29T03:23:02.686Z,100.00
2022-12-29T03:25:38.030Z,100.00
2022-12-29T03:28:14.279Z,100.00
2022-12-29T03:30:47.905Z,100.00
2022-12-29T03:33:24.302Z,100.00
2022-12-29T03:36:00.802Z,100.00
2022-12-29T03:38:38.273Z,100.00
2022-12-29T03:41:19.478Z,100.00
2022-12-29T03:43:48.354Z,100.00
2022-12-29T03:46:16.870Z,100.00
2022-12-29T03:48:45.434Z,99.81
2022-12-29T03:51:15.238Z,99.42
2022-12-29T03:53:43.658Z,99.21
2022-12-29T03:56:12.073Z,99.11
2022-12-29T03:58:40.489Z,98.43
2022-12-29T04:01:12.525Z,98.08
2022-12-29T04:03:41.288Z,97.94
2022-12-29T04:06:09.978Z,97.53
2022-12-29T04:08:49.138Z,96.79
2022-12-29T04:11:18.309Z,96.36
2022-12-29T04:13:47.290Z,95.45
2022-12-29T04:16:20.024Z,95.06
2022-12-29T04:18:49.009Z,94.73
2022-12-29T04:21:17.934Z,94.37
2022-12-29T04:23:48.217Z,94.09
2022-12-29T04:26:18.626Z,93.37
2022-12-29T04:28:55.668Z,93.16
2022-12-29T04:31:35.937Z,92.04
2022-12-29T04:34:04.432Z,91.94
2022-12-29T04:36:34.346Z,91.31
2022-12-29T04:39:06.198Z,90.51
2022-12-29T04:41:35.741Z,90.25
2022-12-29T04:44:04.555Z,89.75
2022-12-29T04:46:56.130Z,88.97
2022-12-29T04:49:37.488Z,88.25
2022-12-29T04:52:38.376Z,88.07
2022-12-29T04:55:10.473Z,87.28
2022-12-29T04:57:38.920Z,87.06
2022-12-29T05:00:10.974Z,86.44
2022-12-29T05:02:40.120Z,86.80
2022-12-29T05:05:09.894Z,86.90
2022-12-29T05:07:43.226Z,87.22
2022-12-29T05:10:13.238Z,87.82
2022-12-29T05:12:42.882Z,88.45
2022-12-29T05:15:13.052Z,88.91
2022-12-29T05:17:41.596Z,89.57
2022-12-29T05:20:11.766Z,89.78
2022-12-29T05:22:40.485Z,89.89
2022-12-29T05:25:10.622Z,90.09
2022-12-29T05:27:55.952Z,89.83
2022-12-29T05:30:41.639Z,90.37
2022-12-29T05:33:12.596Z,90.97
2022-12-29T05:35:41.712Z,91.63
2022-12-29T05:38:10.537Z,91.23
2022-12-29T05:40:39.949Z,91.57
2022-12-29T05:43:19.634Z,91.57
2022-12-29T05:46:08.055Z,91.15
2022-12-29T05:48:58.930Z,90.68
2022-12-29T05:51:34.745Z,90.11
2022-12-29T05:54:03.152Z,89.32
2022-12-29T05:56:31.593Z,88.84
2022-12-29T05:59:03.010Z,87.92
2022-12-29T06:01:32.001Z,87.60
2022-12-29T06:04:00.633Z,87.88
2022-12-29T06:06:29.139Z,87.78
2022-12-29T06:09:00.432Z,86.94
2022-12-29T06:11:28.874Z,86.49
2022-12-29T06:14:01.882Z,85.85
2022-12-29T06:16:30.397Z,85.63
2022-12-29T06:19:01.589Z,85.18
2022-12-29T06:21:30.091Z,85.07
2022-12-29T06:24:00.169Z,84.81
2022-12-29T06:26:28.689Z,85.07
2022-12-29T06:28:57.049Z,84.72
2022-12-29T06:31:26.843Z,84.72
2022-12-29T06:33:55.367Z,84.61
2022-12-29T06:36:23.816Z,84.51
2022-12-29T06:38:53.448Z,84.94
2022-12-29T06:41:25.660Z,84.73
2022-12-29T06:44:12.009Z,84.62
2022-12-29T06:46:56.643Z,84.40
2022-12-29T06:49:25.262Z,84.49
2022-12-29T06:51:53.696Z,84.52
2022-12-29T06:54:22.078Z,85.27
2022-12-29T06:56:50.460Z,85.55
2022-12-29T06:59:18.797Z,85.32
2022-12-29T07:01:47.268Z,85.46
2022-12-29T07:04:17.363Z,85.65
2022-12-29T07:06:45.816Z,85.38
2022-12-29T07:09:14.212Z,85.41
2022-12-29T07:11:42.608Z,85.46
2022-12-29T07:14:12.606Z,85.52
2022-12-29T07:16:41.344Z,85.19
2022-12-29T07:19:09.792Z,85.86
2022-12-29T07:21:47.113Z,86.16
2022-12-29T07:24:15.592Z,85.65
2022-12-29T07:26:44.065Z,84.84
2022-12-29T07:29:12.404Z,84.87
2022-12-29T07:31:40.890Z,84.69
2022-12-29T07:34:10.934Z,84.27
2022-12-29T07:36:40.758Z,84.24
2022-12-29T07:39:09.350Z,83.85
2022-12-29T07:41:37.743Z,84.04
2022-12-29T07:44:06.419Z,83.89
2022-12-29T07:46:54.969Z,84.14
2022-12-29T07:49:25.376Z,83.92
2022-12-29T07:51:55.181Z,83.35
2022-12-29T07:54:24.371Z,83.18
2022-12-29T07:56:52.966Z,82.79
2022-12-29T07:59:21.427Z,82.95
2022-12-29T08:01:50.308Z,83.00
2022-12-29T08:04:18.734Z,83.43
2022-12-29T08:06:47.519Z,83.24
2022-12-29T08:09:22.358Z,83.57
2022-12-29T08:11:51.300Z,83.58
2022-12-29T08:14:20.326Z,83.90
2022-12-29T08:16:49.066Z,84.26
2022-12-29T08:19:17.579Z,84.38
2022-12-29T08:21:45.936Z,84.46
2022-12-29T08:24:14.407Z,84.25
2022-12-29T08:26:44.159Z,84.75
2022-12-29T08:29:12.527Z,85.08
2022-12-29T08:31:41.048Z,85.95
2022-12-29T08:34:09.552Z,86.22
2022-12-29T08:36:37.961Z,86.45
2022-12-29T08:39:06.466Z,86.64
2022-12-29T08:41:34.932Z,86.53
2022-12-29T08:44:04.677Z,86.54
2022-12-29T08:46:33.324Z,86.00
2022-12-29T08:49:01.856Z,86.01
2022-12-29T08:51:30.250Z,86.56
2022-12-29T08:53:58.762Z,85.96
2022-12-29T08:56:27.807Z,86.53
2022-12-29T08:58:58.558Z,88.30
2022-12-29T09:01:28.618Z,90.90
2022-12-29T09:04:14.969Z,91.13
2022-12-29T09:06:44.880Z,91.94
2022-12-29T09:09:13.838Z,92.53
2022-12-29T09:11:42.306Z,93.32
2022-12-29T09:14:10.750Z,94.30
2022-12-29T09:17:01.661Z,95.69
2022-12-29T09:19:30.154Z,96.22
2022-12-29T09:21:58.546Z,95.78
2022-12-29T09:24:26.945Z,96.03
2022-12-29T09:26:55.404Z,94.68
2022-12-29T09:29:24.244Z,94.78
2022-12-29T09:31:54.041Z,95.26
2022-12-29T09:34:22.633Z,96.23
2022-12-29T09:36:51.006Z,98.25
2022-12-29T09:39:19.444Z,100.00
2022-12-29T09:41:55.287Z,100.00
2022-12-29T09:44:33.826Z,100.00
2022-12-29T09:47:03.940Z,100.00
2022-12-29T09:49:42.109Z,100.00
2022-12-29T09:52:17.220Z,100.00
2022-12-29T09:55:02.403Z,100.00
2022-12-29T09:57:39.174Z,100.00
2022-12-29T10:00:15.446Z,100.00
2022-12-29T10:02:49.024Z,100.00
2022-12-29T10:05:35.163Z,100.00
2022-12-29T10:08:19.099Z,100.00
2022-12-29T10:10:56.699Z,100.00
2022-12-29T10:13:38.985Z,100.00
2022-12-29T10:16:17.092Z,100.00
2022-12-29T10:19:11.535Z,100.00
2022-12-29T10:21:55.770Z,100.00
2022-12-29T10:24:25.071Z,100.00
2022-12-29T10:26:54.315Z,100.00
2022-12-29T10:29:26.630Z,99.00
2022-12-29T10:32:01.093Z,97.81
2022-12-29T10:34:38.746Z,96.70
2022-12-29T10:37:14.408Z,95.55
2022-12-29T10:39:50.443Z,95.55
2022-12-29T10:42:31.138Z,95.76
2022-12-29T10:45:01.398Z,95.48
2022-12-29T10:47:34.943Z,94.46
2022-12-29T10:50:06.508Z,93.73
2022-12-29T10:52:36.419Z,93.97
2022-12-29T10:55:10.701Z,94.34
2022-12-29T10:57:44.627Z,94.14
2022-12-29T11:00:17.453Z,93.16
2022-12-29T11:03:40.256Z,93.89
2022-12-29T11:06:13.355Z,92.80
2022-12-29T11:08:47.508Z,93.65
2022-12-29T11:11:27.202Z,92.18
2022-12-29T11:14:01.287Z,92.04
2022-12-29T11:16:32.896Z,88.70
2022-12-29T11:19:01.415Z,85.49
2022-12-29T11:21:40.679Z,85.96
2022-12-29T11:24:23.292Z,85.20
2022-12-29T11:26:58.209Z,85.97
2022-12-29T11:29:30.509Z,85.61
2022-12-29T11:32:01.085Z,82.79
2022-12-29T11:34:35.201Z,81.07
2022-12-29T11:37:11.778Z,79.40
2022-12-29T11:39:45.049Z,80.17
2022-12-29T11:42:18.041Z,82.01
2022-12-29T11:44:49.263Z,81.33
2022-12-29T11:47:28.865Z,79.17
2022-12-29T11:50:01.352Z,79.66
2022-12-29T11:52:36.120Z,80.51
2022-12-29T11:55:08.111Z,80.52
2022-12-29T11:57:37.683Z,80.50
2022-12-29T12:00:17.483Z,80.62
2022-12-29T12:02:54.370Z,79.44
2022-12-29T12:05:36.072Z,79.30
2022-12-29T12:08:19.072Z,79.38
2022-12-29T12:10:55.133Z,78.45
2022-12-29T12:13:32.576Z,78.13
2022-12-29T12:16:07.957Z,77.47
2022-12-29T12:18:44.112Z,77.91
2022-12-29T12:21:21.055Z,77.33
2022-12-29T12:24:21.428Z,77.51
2022-12-29T12:27:01.678Z,77.33
2022-12-29T12:29:40.401Z,77.28
2022-12-29T12:32:18.511Z,76.90
2022-12-29T12:34:49.249Z,77.92
2022-12-29T12:37:40.672Z,78.16
2022-12-29T12:40:42.134Z,78.42
2022-12-29T12:43:39.331Z,79.18
2022-12-29T12:46:22.762Z,79.78
2022-12-29T12:49:14.793Z,80.26
2022-12-29T12:52:04.874Z,80.52
2022-12-29T12:54:58.521Z,80.50
2022-12-29T12:57:42.902Z,81.62
2022-12-29T13:00:14.628Z,83.16
2022-12-29T13:03:00.376Z,84.02
2022-12-29T13:06:15.916Z,83.94
2022-12-29T13:09:15.562Z,84.48
2022-12-29T13:12:02.715Z,84.73
2022-12-29T13:14:46.802Z,85.18
2022-12-29T13:17:25.013Z,85.15
2022-12-29T13:20:03.795Z,84.95
2022-12-29T13:22:40.689Z,84.42
2022-12-29T13:25:30.188Z,82.86
2022-12-29T13:28:05.969Z,82.16
2022-12-29T13:30:42.867Z,81.50
2022-12-29T13:33:24.340Z,80.81
2022-12-29T13:36:02.462Z,79.91
2022-12-29T13:38:38.392Z,79.46
2022-12-29T13:41:11.633Z,80.23
2022-12-29T13:43:44.773Z,79.70
2022-12-29T13:46:19.488Z,79.89
2022-12-29T13:48:54.410Z,79.85
2022-12-29T13:51:28.182Z,79.42
2022-12-29T13:54:20.577Z,79.00
2022-12-29T13:56:54.958Z,78.84
2022-12-29T13:59:41.330Z,78.32
2022-12-29T14:02:23.778Z,77.98
2022-12-29T14:05:01.353Z,77.82
2022-12-29T14:07:30.633Z,77.64
2022-12-29T14:09:59.971Z,77.57
2022-12-29T14:12:34.557Z,78.21
2022-12-29T14:15:23.293Z,78.16
2022-12-29T14:18:27.824Z,78.75
2022-12-29T14:21:00.240Z,78.99
2022-12-29T14:23:38.937Z,79.54
2022-12-29T14:26:17.229Z,79.76
2022-12-29T14:28:47.338Z,80.19
2022-12-29T14:31:42.961Z,80.42
2022-12-29T14:34:31.435Z,80.35
2022-12-29T14:37:03.059Z,79.91
2022-12-29T14:39:40.011Z,80.01
2022-12-29T14:42:14.692Z,79.26
2022-12-29T14:44:51.603Z,79.79
2022-12-29T14:47:25.205Z,79.79
2022-12-29T14:49:56.041Z,79.19
2022-12-29T14:52:28.114Z,78.74
2022-12-29T14:55:01.365Z,77.40
2022-12-29T14:57:41.972Z,77.32
2022-12-29T15:00:20.948Z,77.55
2022-12-29T15:02:55.570Z,77.05
2022-12-29T15:05:36.279Z,77.07
2022-12-29T15:08:06.166Z,77.18
2022-12-29T15:10:42.973Z,76.50
2022-12-29T15:13:23.362Z,76.98
2022-12-29T15:15:52.008Z,77.65
2022-12-29T15:18:27.677Z,77.77
2022-12-29T15:21:00.222Z,77.58
2022-12-29T15:23:29.735Z,77.41
2022-12-29T15:26:00.720Z,76.85
2022-12-29T15:28:38.700Z,76.28
2022-12-29T15:31:13.927Z,76.80
2022-12-29T15:33:44.658Z,76.87
2022-12-29T15:36:20.042Z,76.65
2022-12-29T15:38:48.700Z,76.54
2022-12-29T15:41:29.161Z,76.74
2022-12-29T15:44:11.750Z,76.23
2022-12-29T15:46:40.801Z,76.73
2022-12-29T15:49:10.855Z,76.44
2022-12-29T15:51:41.915Z,76.49
2022-12-29T15:54:19.580Z,76.39
2022-12-29T15:56:50.875Z,76.41
2022-12-29T15:59:27.748Z,75.54
2022-12-29T16:01:58.002Z,74.86
2022-12-29T16:04:30.347Z,74.80
2022-12-29T16:07:03.193Z,75.01
2022-12-29T16:09:35.870Z,75.36
2022-12-29T16:12:09.066Z,75.41
2022-12-29T16:14:48.901Z,75.44
2022-12-29T16:17:22.885Z,76.64
2022-12-29T16:19:54.988Z,76.89
2022-12-29T16:22:33.780Z,77.17
2022-12-29T16:25:07.306Z,77.13
2022-12-29T16:27:40.164Z,77.49
2022-12-29T16:30:19.606Z,77.35
2022-12-29T16:32:49.895Z,77.40
2022-12-29T16:35:21.789Z,77.70
2022-12-29T16:38:13.149Z,77.86
2022-12-29T16:40:51.808Z,78.12
2022-12-29T16:43:26.211Z,77.70
2022-12-29T16:46:21.440Z,78.10
2022-12-29T16:48:53.957Z,77.50
2022-12-29T16:51:32.333Z,77.12
2022-12-29T16:54:03.155Z,78.02
2022-12-29T16:56:34.320Z,79.12
2022-12-29T16:59:07.935Z,79.32
2022-12-29T17:01:40.181Z,80.38
2022-12-29T17:04:12.138Z,80.95
2022-12-29T17:06:41.491Z,81.43
2022-12-29T17:09:22.381Z,82.27
2022-12-29T17:12:01.709Z,82.15
2022-12-29T17:14:44.215Z,82.51
2022-12-29T17:17:18.521Z,83.09
2022-12-29T17:19:51.772Z,84.10
2022-12-29T17:22:25.186Z,84.32
2022-12-29T17:24:55.877Z,84.51
2022-12-29T17:27:29.600Z,84.33
2022-12-29T17:30:02.371Z,84.73
2022-12-29T17:32:31.304Z,84.69
2022-12-29T17:34:59.636Z,84.70
2022-12-29T17:37:36.173Z,84.57
2022-12-29T17:40:09.412Z,84.31
2022-12-29T17:42:44.389Z,83.37
2022-12-29T17:45:17.920Z,82.96
2022-12-29T17:47:46.585Z,83.00
2022-12-29T17:50:18.298Z,82.13
2022-12-29T17:52:52.543Z,82.01
2022-12-29T17:55:26.914Z,82.08
2022-12-29T17:57:57.215Z,82.53
2022-12-29T18:00:29.251Z,82.50
2022-12-29T18:02:58.598Z,82.16
2022-12-29T18:05:29.946Z,81.72
2022-12-29T18:08:01.477Z,82.15
2022-12-29T18:10:32.508Z,82.17
2022-12-29T18:13:02.049Z,81.96
2022-12-29T18:15:34.629Z,81.80
2022-12-29T18:18:10.591Z,81.76
2022-12-29T18:20:39.652Z,82.26
2022-12-29T18:23:10.545Z,81.66
2022-12-29T18:25:46.305Z,81.79
2022-12-29T18:28:14.645Z,81.97
2022-12-29T18:30:43.122Z,82.24
2022-12-29T18:33:21.356Z,81.80
2022-12-29T18:35:56.073Z,81.89
2022-12-29T18:38:24.513Z,81.56
2022-12-29T18:40:54.645Z,81.64
2022-12-29T18:43:23.763Z,81.20
2022-12-29T18:45:52.316Z,81.51
2022-12-29T18:48:22.520Z,81.73
2022-12-29T18:50:51.911Z,81.59
2022-12-29T18:53:23.224Z,81.43
2022-12-29T18:55:53.588Z,81.07
2022-12-29T18:58:22.024Z,81.37
2022-12-29T19:00:51.064Z,80.80
2022-12-29T19:03:20.280Z,81.14
2022-12-29T19:05:49.803Z,81.33
2022-12-29T19:08:18.197Z,81.07
2022-12-29T19:10:47.325Z,80.35
2022-12-29T19:13:20.444Z,80.74
2022-12-29T19:15:49.408Z,80.27
2022-12-29T19:21:10.220Z,80.41
2022-12-29T19:23:38.670Z,80.68
2022-12-29T19:26:07.437Z,80.60
2022-12-29T19:28:37.169Z,80.02
2022-12-29T19:31:05.669Z,80.44
2022-12-29T19:33:34.234Z,80.73
2022-12-29T19:36:03.856Z,80.46
2022-12-29T19:38:32.200Z,79.89
2022-12-29T19:41:00.658Z,80.15
2022-12-29T19:43:30.508Z,80.62
2022-12-29T19:46:00.418Z,80.71
2022-12-29T19:48:28.772Z,80.71
2022-12-29T19:51:06.367Z,80.01
2022-12-29T19:53:35.206Z,80.50
2022-12-29T19:56:05.799Z,80.85
2022-12-29T19:58:35.604Z,80.77
2022-12-29T20:01:12.743Z,80.40
2022-12-29T20:03:42.589Z,80.41
2022-12-29T20:06:12.653Z,80.45
2022-12-29T20:08:41.795Z,80.67
2022-12-29T20:11:13.207Z,80.94
2022-12-29T20:13:42.488Z,81.11
2022-12-29T20:16:16.018Z,81.18
2022-12-29T20:18:45.573Z,81.25
2022-12-29T20:21:17.522Z,81.26
2022-12-29T20:23:46.369Z,80.78
2022-12-29T20:26:16.624Z,81.52
2022-12-29T20:28:45.304Z,81.08
2022-12-29T20:31:21.943Z,81.39
2022-12-29T20:33:50.617Z,81.69
2022-12-29T20:36:22.350Z,81.37
2022-12-29T20:38:52.146Z,81.49
2022-12-29T20:41:21.178Z,81.73
2022-12-29T20:43:49.948Z,81.68
2022-12-29T20:46:21.832Z,81.56
2022-12-29T20:48:51.434Z,81.85
2022-12-29T20:51:21.964Z,81.79
2022-12-29T20:53:50.892Z,81.65
2022-12-29T20:56:22.112Z,81.52
2022-12-29T20:59:25.904Z,82.13
2022-12-29T21:01:42.801Z,82.79
2022-12-29T21:04:11.282Z,83.37
2022-12-29T21:06:39.660Z,83.86
2022-12-29T21:09:08.144Z,84.26
2022-12-29T21:11:36.799Z,84.94
2022-12-29T21:14:05.173Z,85.42
2022-12-29T21:16:33.525Z,85.60
2022-12-29T21:19:03.511Z,85.99
2022-12-29T21:21:31.869Z,86.25
2022-12-29T21:24:05.355Z,87.36
2022-12-29T21:26:35.032Z,87.49
2022-12-29T21:29:04.432Z,87.31
2022-12-29T21:31:35.210Z,87.30
2022-12-29T21:34:06.936Z,86.99
2022-12-29T21:36:35.763Z,87.11
2022-12-29T21:39:04.938Z,86.27
2022-12-29T21:41:33.832Z,85.95
2022-12-29T21:44:19.896Z,85.61
2022-12-29T21:46:48.857Z,86.06
2022-12-29T21:49:18.567Z,85.46
2022-12-29T21:51:54.071Z,85.01
2022-12-29T21:54:43.604Z,85.63
2022-12-29T21:57:33.512Z,86.06
2022-12-29T22:00:20.077Z,86.18
2022-12-29T22:03:06.044Z,86.37
2022-12-29T22:05:53.713Z,86.28
2022-12-29T22:08:39.582Z,87.34
2022-12-29T22:11:27.176Z,87.88
2022-12-29T22:13:58.065Z,87.66
2022-12-29T22:16:26.887Z,87.88
2022-12-29T22:18:55.440Z,88.61
2022-12-29T22:21:25.536Z,89.71
2022-12-29T22:23:53.990Z,89.61
2022-12-29T22:26:22.359Z,90.22
2022-12-29T22:28:52.064Z,88.08
2022-12-29T22:31:28.872Z,90.04
2022-12-29T22:33:59.223Z,87.80
2022-12-29T22:36:29.723Z,88.58
2022-12-29T22:38:58.323Z,85.94
2022-12-29T22:41:26.663Z,85.18
2022-12-29T22:43:56.049Z,84.97
2022-12-29T22:46:24.633Z,85.89
2022-12-29T22:48:53.155Z,86.45
2022-12-29T22:51:21.543Z,88.12
2022-12-29T22:53:52.051Z,88.28
2022-12-29T22:56:21.824Z,88.45
2022-12-29T22:58:51.614Z,88.46
2022-12-29T23:01:22.707Z,88.99
2022-12-29T23:03:51.531Z,89.60
2022-12-29T23:06:20.650Z,89.39
2022-12-29T23:08:49.085Z,89.81
2022-12-29T23:11:18.821Z,89.27
2022-12-29T23:13:47.384Z,89.49
2022-12-29T23:16:17.425Z,89.06
2022-12-29T23:18:48.067Z,88.43
2022-12-29T23:21:18.209Z,88.53
2022-12-29T23:23:57.262Z,88.26
2022-12-29T23:26:32.828Z,87.78
2022-12-29T23:29:03.607Z,87.62
2022-12-29T23:31:33.451Z,87.60
2022-12-29T23:34:03.788Z,87.35
2022-12-29T23:36:32.874Z,86.93
2022-12-29T23:39:01.601Z,87.02
2022-12-29T23:41:31.744Z,87.36
2022-12-29T23:44:00.089Z,87.00
2022-12-29T23:46:31.350Z,86.78
2022-12-29T23:49:00.258Z,87.14
2022-12-29T23:51:28.761Z,87.43
2022-12-29T23:53:57.191Z,87.32
2022-12-29T23:56:25.642Z,87.23
2022-12-29T23:58:55.508Z,87.51
